Time;durP1;ratioP1;P1;durP2;ratioP2;P2;SDS_P1;SDS_P2;PMS_P1;PMS_P2;Temp;Humidity;BMP_temperature;BMP_pressure;BME280_temperature;BME280_humidity;BME280_pressure;Samples;Min_cycle;Max_cycle;Signal;HPM_P1;HPM_P2
2023/06/02 04:31:42;;;;;;;16.33;7.00;;;15.80;66.40;;;;;;5350417;23;20042;-77
2023/06/02 04:34:09;;;;;;;14.02;6.80;;;15.80;66.40;;;;;;4951359;28;20026;-77
2023/06/02 04:36:36;;;;;;;13.48;6.93;;;15.80;66.30;;;;;;4936515;29;20035;-77
2023/06/02 04:39:02;;;;;;;13.35;7.03;;;15.80;66.40;;;;;;4955053;29;20019;-77
2023/06/02 04:41:29;;;;;;;13.57;6.53;;;15.70;66.30;;;;;;4954687;29;20121;-77
2023/06/02 04:43:56;;;;;;;15.48;7.35;;;15.70;66.30;;;;;;4946540;28;20703;-77
2023/06/02 04:46:22;;;;;;;11.40;6.53;;;15.70;66.20;;;;;;4951167;29;20055;-77
2023/06/02 04:48:48;;;;;;;15.35;7.50;;;15.70;66.30;;;;;;4937412;29;20130;-79
2023/06/02 04:51:14;;;;;;;12.07;6.85;;;15.70;66.20;;;;;;4954539;28;20073;-76
2023/06/02 04:53:40;;;;;;;12.95;6.93;;;15.70;65.90;;;;;;4954504;29;20031;-80
2023/06/02 04:56:06;;;;;;;13.23;7.00;;;15.70;65.90;;;;;;4936073;29;20039;-82
2023/06/02 04:58:32;;;;;;;13.93;7.40;;;15.70;66.00;;;;;;4954670;29;20371;-82
2023/06/02 05:00:57;;;;;;;16.23;7.35;;;15.70;65.90;;;;;;4934809;29;20024;-78
2023/06/02 05:03:23;;;;;;;14.90;7.75;;;15.70;65.80;;;;;;4948408;28;20114;-81
2023/06/02 05:05:49;;;;;;;14.38;8.07;;;15.70;65.90;;;;;;4954328;29;20027;-80
2023/06/02 05:08:14;;;;;;;13.38;7.90;;;15.70;66.10;;;;;;4955725;29;20042;-80
2023/06/02 05:10:40;;;;;;;16.73;8.10;;;15.60;66.30;;;;;;4953133;29;20490;-81
2023/06/02 05:13:06;;;;;;;14.40;7.50;;;15.60;66.40;;;;;;4936059;29;20031;-81
2023/06/02 05:15:31;;;;;;;14.18;7.75;;;15.60;66.40;;;;;;4940343;29;20035;-83
2023/06/02 05:18:00;;;;;;;17.83;8.63;;;15.60;66.30;;;;;;4947880;29;20031;-77
2023/06/02 05:20:26;;;;;;;14.68;7.95;;;15.60;66.30;;;;;;4956572;29;20794;-80
2023/06/02 05:22:51;;;;;;;14.35;7.55;;;15.70;66.40;;;;;;4934034;29;20031;-78
2023/06/02 05:25:26;;;;;;;14.43;7.68;;;15.60;66.20;;;;;;4953045;29;20024;-78
2023/06/02 05:27:51;;;;;;;15.85;8.60;;;15.60;66.40;;;;;;4953609;29;20303;-78
2023/06/02 05:30:17;;;;;;;15.10;8.10;;;15.70;66.30;;;;;;4956455;29;20202;-78
2023/06/02 05:32:44;;;;;;;15.35;8.15;;;15.70;65.90;;;;;;4955586;28;20509;-80
2023/06/02 05:35:09;;;;;;;13.88;8.40;;;15.70;66.20;;;;;;4938713;29;20167;-79
2023/06/02 05:37:35;;;;;;;15.68;8.50;;;15.70;66.00;;;;;;4933819;29;20118;-80
2023/06/02 05:40:01;;;;;;;11.90;7.70;;;15.60;65.80;;;;;;4939431;29;20030;-81
2023/06/02 05:42:27;;;;;;;16.50;8.27;;;15.70;65.80;;;;;;4958726;28;20054;-79
2023/06/02 05:44:53;;;;;;;15.73;8.43;;;15.60;65.90;;;;;;4954087;29;20035;-80
2023/06/02 05:47:18;;;;;;;14.50;7.90;;;15.60;65.70;;;;;;4957246;29;20320;-79
2023/06/02 05:49:44;;;;;;;15.75;8.63;;;15.70;65.90;;;;;;4956936;28;20035;-79
2023/06/02 05:52:10;;;;;;;14.90;8.20;;;15.60;65.70;;;;;;4957429;29;20061;-79
2023/06/02 05:54:35;;;;;;;14.38;8.65;;;15.60;65.70;;;;;;4955994;28;20039;-78
2023/06/02 05:57:02;;;;;;;13.48;8.23;;;15.70;65.50;;;;;;4956119;29;20031;-82
2023/06/02 05:59:28;;;;;;;16.35;8.90;;;15.70;65.40;;;;;;4939902;29;20024;-81
2023/06/02 06:01:54;;;;;;;16.60;9.30;;;15.70;65.40;;;;;;4956552;29;20367;-80
2023/06/02 06:04:19;;;;;;;16.33;9.35;;;15.70;65.30;;;;;;4941092;29;20031;-82
2023/06/02 06:06:45;;;;;;;18.45;9.88;;;15.80;65.00;;;;;;4958292;29;20027;-80
2023/06/02 06:09:11;;;;;;;15.50;8.98;;;15.80;64.80;;;;;;4938474;28;20091;-80
2023/06/02 06:11:36;;;;;;;14.10;8.77;;;15.70;65.10;;;;;;4940368;28;20024;-80
2023/06/02 06:14:05;;;;;;;18.75;8.40;;;15.70;65.00;;;;;;4949211;28;20034;-80
2023/06/02 06:16:31;;;;;;;18.00;9.38;;;15.80;64.80;;;;;;4979842;28;20105;-79
2023/06/02 06:18:56;;;;;;;14.00;8.60;;;15.80;64.50;;;;;;4962298;28;20034;-81
2023/06/02 06:21:23;;;;;;;17.08;8.82;;;16.00;64.50;;;;;;4972171;28;20091;-82
2023/06/02 06:23:49;;;;;;;14.82;8.85;;;16.00;64.10;;;;;;4950585;29;20031;-80
2023/06/02 06:26:14;;;;;;;15.43;10.07;;;16.00;63.90;;;;;;4947920;29;20027;-80
2023/06/02 06:28:42;;;;;;;19.85;10.52;;;16.10;63.80;;;;;;4959570;29;20391;-79
2023/06/02 06:31:08;;;;;;;17.38;10.07;;;16.20;63.50;;;;;;4944330;29;20083;-80
2023/06/02 06:33:34;;;;;;;15.55;9.65;;;16.20;63.10;;;;;;4949518;29;20544;-81
2023/06/02 06:35:59;;;;;;;17.23;10.45;;;16.30;63.00;;;;;;4959306;29;20037;-80
2023/06/02 06:38:25;;;;;;;18.67;10.90;;;16.40;62.80;;;;;;4958276;28;20027;-80
2023/06/02 06:40:51;;;;;;;18.20;10.27;;;16.50;62.30;;;;;;4947713;29;20036;-84
2023/06/02 06:43:17;;;;;;;17.20;9.95;;;16.60;62.10;;;;;;4958547;28;20030;-78
2023/06/02 06:45:42;;;;;;;18.73;9.88;;;16.80;62.00;;;;;;4958150;28;20773;-84
2023/06/02 06:48:08;;;;;;;17.90;10.50;;;16.90;61.30;;;;;;4962529;28;20093;-85
2023/06/02 06:50:35;;;;;;;18.67;10.30;;;17.00;61.10;;;;;;4960979;28;20581;-84
2023/06/02 06:53:02;;;;;;;18.60;10.10;;;17.20;60.60;;;;;;4947000;29;20096;-84
2023/06/02 06:55:28;;;;;;;17.25;10.50;;;17.30;60.30;;;;;;4957775;29;20031;-84
2023/06/02 06:57:53;;;;;;;17.88;10.50;;;17.40;60.30;;;;;;4958967;29;20031;-83
2023/06/02 07:00:19;;;;;;;16.95;10.63;;;17.40;60.10;;;;;;4949784;28;20472;-83
2023/06/02 07:02:48;;;;;;;16.70;10.25;;;17.40;59.90;;;;;;4952376;28;20046;-83
2023/06/02 07:05:14;;;;;;;17.13;10.35;;;17.50;59.70;;;;;;4946114;29;20402;-84
2023/06/02 07:07:40;;;;;;;15.93;9.75;;;17.70;59.20;;;;;;4959293;29;20035;-83
2023/06/02 07:10:06;;;;;;;17.00;10.48;;;17.70;59.30;;;;;;4949994;29;20512;-84
2023/06/02 07:12:32;;;;;;;18.80;10.70;;;17.70;59.00;;;;;;4957009;29;20036;-83
2023/06/02 07:14:57;;;;;;;18.70;10.63;;;17.80;58.60;;;;;;4923980;29;20031;-83
2023/06/02 07:17:23;;;;;;;18.90;10.90;;;17.80;58.80;;;;;;4944571;29;20162;-84
2023/06/02 07:19:48;;;;;;;18.23;11.55;;;17.80;58.70;;;;;;4958679;29;20086;-85
2023/06/02 07:22:14;;;;;;;17.83;10.70;;;17.70;58.70;;;;;;4941429;29;20041;-84
2023/06/02 07:24:42;;;;;;;19.73;11.73;;;17.70;58.70;;;;;;4942019;29;20023;-85
2023/06/02 07:27:08;;;;;;;19.08;11.35;;;17.70;58.60;;;;;;4942364;29;20054;-84
2023/06/02 07:29:34;;;;;;;20.25;12.75;;;17.30;59.90;;;;;;4956660;29;21169;-85
2023/06/02 07:31:59;;;;;;;20.02;12.68;;;17.10;60.50;;;;;;4958874;29;20055;-84
2023/06/02 07:34:25;;;;;;;20.10;12.43;;;17.20;60.70;;;;;;4952640;29;20445;-84
2023/06/02 07:36:51;;;;;;;19.98;13.10;;;17.30;60.70;;;;;;4923315;29;20054;-83
2023/06/02 07:39:17;;;;;;;20.52;12.05;;;18.00;59.20;;;;;;4944816;29;20389;-84
2023/06/02 07:41:43;;;;;;;17.45;12.77;;;19.40;55.40;;;;;;4940672;29;20027;-81
2023/06/02 07:44:08;;;;;;;18.27;13.32;;;21.00;52.10;;;;;;4973732;28;20033;-81
2023/06/02 07:46:34;;;;;;;21.38;14.50;;;21.00;50.20;;;;;;4978257;28;20059;-80
2023/06/02 07:49:01;;;;;;;19.33;14.25;;;20.30;51.80;;;;;;4952451;29;20039;-81
2023/06/02 07:51:27;;;;;;;20.25;16.08;;;20.80;50.80;;;;;;4958976;29;20031;-81
2023/06/02 07:53:53;;;;;;;17.98;14.10;;;23.40;45.70;;;;;;4958914;29;20027;-81
2023/06/02 07:56:18;;;;;;;19.52;13.95;;;23.60;43.30;;;;;;4956348;29;20066;-82
2023/06/02 07:58:47;;;;;;;19.00;15.00;;;23.30;44.00;;;;;;4922121;29;20035;-81
2023/06/02 08:01:13;;;;;;;16.52;14.15;;;23.60;43.40;;;;;;4939145;29;20054;-82
2023/06/02 08:03:40;;;;;;;19.10;14.25;;;23.80;44.00;;;;;;4950409;28;20031;-81
2023/06/02 08:06:06;;;;;;;17.95;14.07;;;23.20;44.70;;;;;;4941513;29;20027;-81
2023/06/02 08:08:32;;;;;;;19.65;14.65;;;23.20;44.10;;;;;;4941898;29;20027;-81
2023/06/02 08:10:59;;;;;;;18.17;14.40;;;23.00;45.00;;;;;;4958200;29;20513;-81
2023/06/02 08:13:25;;;;;;;18.85;14.90;;;23.90;43.90;;;;;;4957475;29;20390;-81
2023/06/02 08:15:51;;;;;;;15.77;14.00;;;24.80;42.20;;;;;;4956958;29;20039;-82
2023/06/02 08:18:18;;;;;;;14.90;13.32;;;26.70;39.50;;;;;;4954478;29;20032;-83
2023/06/02 08:20:45;;;;;;;15.02;13.40;;;28.50;36.70;;;;;;4938611;29;20039;-83
2023/06/02 08:23:11;;;;;;;15.68;14.18;;;29.80;34.20;;;;;;4940989;29;20023;-82
2023/06/02 08:25:37;;;;;;;15.90;14.38;;;30.60;32.90;;;;;;4939925;29;20035;-83
2023/06/02 08:28:07;;;;;;;15.50;14.00;;;31.50;31.60;;;;;;4938903;29;20050;-81
2023/06/02 08:30:36;;;;;;;15.55;14.05;;;31.70;30.80;;;;;;4957071;29;20039;-81
2023/06/02 08:33:03;;;;;;;15.30;13.90;;;31.40;31.60;;;;;;4940372;29;20086;-81
2023/06/02 08:35:32;;;;;;;15.77;14.20;;;32.00;30.90;;;;;;4957447;29;20020;-81
2023/06/02 08:38:03;;;;;;;14.15;12.48;;;33.00;30.10;;;;;;4958101;29;20031;-81
2023/06/02 08:40:37;;;;;;;14.82;13.45;;;33.40;29.50;;;;;;4932037;29;20042;-81
2023/06/02 08:43:13;;;;;;;15.68;14.18;;;33.70;28.60;;;;;;4951106;28;20038;-82
2023/06/02 08:45:41;;;;;;;13.63;12.25;;;33.70;28.30;;;;;;4948475;29;20032;-82
2023/06/02 08:48:09;;;;;;;15.13;13.73;;;33.70;27.70;;;;;;4944146;29;20031;-81
2023/06/02 08:50:38;;;;;;;14.20;12.80;;;33.70;28.30;;;;;;4928915;29;20055;-81
2023/06/02 08:53:06;;;;;;;15.77;14.10;;;33.80;28.30;;;;;;4957455;29;20027;-81
2023/06/02 08:55:32;;;;;;;14.15;12.82;;;33.80;27.20;;;;;;4957835;29;20055;-80
2023/06/02 08:57:59;;;;;;;14.07;12.80;;;33.60;28.50;;;;;;4939319;29;20142;-80
2023/06/02 09:00:24;;;;;;;16.25;14.50;;;33.70;29.20;;;;;;4957651;28;20050;-82
2023/06/02 09:02:50;;;;;;;15.13;13.63;;;33.90;28.50;;;;;;4939572;29;20027;-82
2023/06/02 09:05:16;;;;;;;15.80;14.23;;;33.90;28.40;;;;;;4939784;29;20662;-82
2023/06/02 09:07:46;;;;;;;14.15;12.90;;;33.90;28.40;;;;;;4953364;29;20058;-82
2023/06/02 09:10:29;;;;;;;15.48;13.98;;;34.00;28.70;;;;;;4923219;29;20035;-82
2023/06/02 09:12:55;;;;;;;15.45;13.98;;;34.10;28.00;;;;;;4955465;28;20598;-81
2023/06/02 09:15:22;;;;;;;14.48;12.98;;;33.90;27.10;;;;;;4961951;28;20114;-82
2023/06/02 09:17:48;;;;;;;14.82;13.50;;;34.10;28.40;;;;;;4965780;28;20118;-82
2023/06/02 09:20:14;;;;;;;15.68;14.27;;;34.00;27.60;;;;;;4957119;29;20094;-81
2023/06/02 09:23:01;;;;;;;16.38;14.45;;;34.00;27.40;;;;;;4946440;29;20024;-82
2023/06/02 09:25:29;;;;;;;14.43;13.15;;;34.00;28.00;;;;;;4938160;29;20151;-82
2023/06/02 09:27:59;;;;;;;13.75;12.45;;;34.00;27.80;;;;;;4921502;29;20199;-81
2023/06/02 09:30:25;;;;;;;14.60;13.27;;;34.30;27.90;;;;;;4934174;29;20039;-82
2023/06/02 09:32:53;;;;;;;16.02;14.15;;;34.40;27.40;;;;;;4952037;29;20474;-81
2023/06/02 09:35:40;;;;;;;13.95;12.45;;;34.70;27.40;;;;;;4928150;29;20027;-81
2023/06/02 09:38:16;;;;;;;14.30;12.20;;;34.70;27.00;;;;;;4946004;28;20031;-81
2023/06/02 09:40:43;;;;;;;14.10;12.80;;;34.80;26.60;;;;;;4942328;29;20031;-81
2023/06/02 09:43:13;;;;;;;13.73;12.57;;;34.70;26.20;;;;;;4942055;29;20020;-81
2023/06/02 09:45:48;;;;;;;13.90;12.55;;;34.70;26.00;;;;;;4958677;29;20036;-81
2023/06/02 09:48:18;;;;;;;14.05;12.63;;;34.90;26.20;;;;;;4933935;29;20038;-81
2023/06/02 09:50:43;;;;;;;13.93;12.52;;;34.80;25.20;;;;;;4942064;29;20031;-81
2023/06/02 09:53:13;;;;;;;12.95;11.75;;;34.50;26.10;;;;;;4959073;29;20081;-81
2023/06/02 09:55:39;;;;;;;14.07;12.60;;;34.00;27.00;;;;;;4951544;29;20046;-81
2023/06/02 09:58:06;;;;;;;12.93;11.77;;;34.10;27.10;;;;;;4929297;29;20035;-80
2023/06/02 10:00:33;;;;;;;12.63;11.32;;;33.90;26.40;;;;;;4939797;29;20032;-81
2023/06/02 10:03:00;;;;;;;13.20;11.90;;;34.30;26.80;;;;;;4938185;29;20027;-81
2023/06/02 10:05:25;;;;;;;12.95;11.65;;;34.40;26.30;;;;;;4945700;29;20489;-81
2023/06/02 10:08:15;;;;;;;12.68;11.57;;;34.10;26.20;;;;;;4939939;29;20063;-81
2023/06/02 10:10:58;;;;;;;13.15;11.95;;;34.10;27.30;;;;;;4950822;29;20031;-81
2023/06/02 10:14:01;;;;;;;12.25;11.15;;;34.00;27.00;;;;;;4957205;29;20027;-80
2023/06/02 10:16:35;;;;;;;10.55;9.60;;;34.20;27.10;;;;;;4942288;29;20557;-80
2023/06/02 10:19:14;;;;;;;11.38;10.20;;;34.30;27.40;;;;;;4955268;29;20027;-80
2023/06/02 10:22:14;;;;;;;11.52;10.52;;;34.20;27.00;;;;;;4934177;29;20036;-81
2023/06/02 10:25:03;;;;;;;11.65;10.25;;;34.00;28.60;;;;;;4958653;29;20034;-80
2023/06/02 10:27:33;;;;;;;11.25;10.25;;;33.80;27.90;;;;;;4938916;29;20038;-80
2023/06/02 10:30:00;;;;;;;11.77;10.57;;;33.50;27.80;;;;;;4942937;29;20178;-80
2023/06/02 10:32:27;;;;;;;12.15;10.85;;;33.30;28.40;;;;;;4934597;29;20058;-80
2023/06/02 10:34:54;;;;;;;10.60;9.35;;;32.80;28.20;;;;;;4939945;29;20047;-80
2023/06/02 10:37:21;;;;;;;10.73;9.57;;;32.30;29.80;;;;;;4938375;29;20055;-79
2023/06/02 10:39:50;;;;;;;12.50;9.68;;;31.50;30.00;;;;;;4939375;29;20036;-81
2023/06/02 10:42:17;;;;;;;10.55;9.38;;;30.60;31.80;;;;;;4940505;29;20020;-79
2023/06/02 10:44:44;;;;;;;12.82;9.35;;;30.00;32.40;;;;;;4938459;29;20028;-80
2023/06/02 10:47:18;;;;;;;11.13;9.32;;;29.60;33.60;;;;;;4938820;29;20035;-80
2023/06/02 10:49:58;;;;;;;10.90;9.70;;;29.00;34.00;;;;;;4938549;29;20028;-79
2023/06/02 10:52:25;;;;;;;13.02;9.98;;;28.50;35.10;;;;;;4946379;29;20046;-79
2023/06/02 10:55:11;;;;;;;13.20;9.48;;;28.30;35.10;;;;;;4944144;29;20514;-79
2023/06/02 10:57:52;;;;;;;12.63;9.43;;;27.80;36.80;;;;;;4938259;29;20429;-80
2023/06/02 11:00:32;;;;;;;12.43;10.10;;;27.60;36.50;;;;;;4936348;29;20034;-80
2023/06/02 11:03:08;;;;;;;14.18;10.23;;;27.70;36.80;;;;;;4951125;29;20087;-79
2023/06/02 11:05:34;;;;;;;13.55;9.60;;;27.50;37.00;;;;;;4948549;29;20079;-79
2023/06/02 11:08:15;;;;;;;12.45;9.88;;;27.40;36.70;;;;;;4952605;28;20039;-79
2023/06/02 11:10:46;;;;;;;10.85;8.98;;;27.30;38.00;;;;;;4938033;29;20024;-79
2023/06/02 11:13:16;;;;;;;13.15;10.30;;;27.40;38.70;;;;;;4939516;29;20091;-79
2023/06/02 11:16:06;;;;;;;16.50;10.68;;;27.30;37.70;;;;;;4939817;29;20047;-79
2023/06/02 11:18:32;;;;;;;12.70;9.70;;;27.10;38.40;;;;;;4937885;29;20015;-80
2023/06/02 11:21:00;;;;;;;12.15;9.55;;;27.10;38.40;;;;;;4954893;29;20027;-80
2023/06/02 11:23:26;;;;;;;12.55;9.43;;;27.00;38.40;;;;;;4935172;28;20016;-80
2023/06/02 11:26:01;;;;;;;11.88;8.80;;;26.90;38.00;;;;;;4937847;29;20035;-79
2023/06/02 11:28:28;;;;;;;9.68;8.52;;;26.90;38.90;;;;;;4939121;29;20386;-79
2023/06/02 11:31:14;;;;;;;11.65;8.10;;;26.80;38.80;;;;;;4941861;28;20063;-80
2023/06/02 11:33:48;;;;;;;10.30;7.65;;;26.80;39.60;;;;;;4943114;28;20050;-80
2023/06/02 11:36:15;;;;;;;11.15;8.35;;;26.50;39.20;;;;;;4937272;29;20096;-80
2023/06/02 11:38:42;;;;;;;12.82;7.95;;;26.50;38.50;;;;;;4940172;29;20023;-78
2023/06/02 11:41:12;;;;;;;11.45;8.85;;;26.50;38.20;;;;;;4940255;29;20133;-83
2023/06/02 11:43:42;;;;;;;9.68;7.82;;;26.30;39.10;;;;;;4945811;28;20054;-80
2023/06/02 11:46:16;;;;;;;12.48;9.27;;;26.30;38.50;;;;;;4977750;28;20073;-85
2023/06/02 11:48:43;;;;;;;13.93;9.48;;;26.30;39.70;;;;;;4951034;29;20047;-88
2023/06/02 11:51:11;;;;;;;13.07;9.00;;;26.30;39.40;;;;;;4958730;29;20494;-81
2023/06/02 11:53:43;;;;;;;13.05;8.15;;;26.30;39.30;;;;;;4952372;29;20032;-79
2023/06/02 11:56:09;;;;;;;;;;;26.30;39.00;;;;;;4952054;29;20043;-80
2023/06/02 11:58:45;;;;;;;10.90;8.02;;;26.30;38.10;;;;;;4938234;29;19915;-79
2023/06/02 12:01:14;;;;;;;14.77;8.60;;;26.10;39.00;;;;;;4946980;28;20028;-79
2023/06/02 12:04:02;;;;;;;11.32;9.00;;;26.20;39.20;;;;;;4938175;29;20069;-79
2023/06/02 12:06:28;;;;;;;11.40;8.48;;;26.20;38.50;;;;;;4940032;29;20033;-79
2023/06/02 12:08:55;;;;;;;12.02;8.70;;;26.00;40.20;;;;;;4948263;28;20070;-80
2023/06/02 12:11:25;;;;;;;10.52;8.65;;;26.10;38.80;;;;;;4944255;29;20023;-79
2023/06/02 12:14:00;;;;;;;10.82;7.97;;;26.20;38.30;;;;;;4940238;29;20066;-80
2023/06/02 12:16:26;;;;;;;14.10;8.60;;;26.10;37.00;;;;;;4950777;29;20023;-79
2023/06/02 12:18:55;;;;;;;11.07;8.05;;;26.00;37.50;;;;;;4948087;29;20034;-79
2023/06/02 12:21:26;;;;;;;13.63;8.55;;;25.80;38.70;;;;;;4950201;29;20024;-79
2023/06/02 12:23:53;;;;;;;11.43;8.48;;;25.90;38.50;;;;;;4945953;29;20035;-79
2023/06/02 12:26:19;;;;;;;10.90;8.13;;;26.00;37.60;;;;;;4949058;29;20024;-79
2023/06/02 12:28:45;;;;;;;11.55;7.72;;;25.90;38.20;;;;;;4950777;28;20039;-79
2023/06/02 12:31:11;;;;;;;12.50;7.63;;;25.80;37.40;;;;;;4949868;28;20054;-79
2023/06/02 12:33:40;;;;;;;10.60;7.80;;;26.00;37.60;;;;;;4943603;29;20494;-79
2023/06/02 12:36:07;;;;;;;10.05;6.97;;;25.90;38.40;;;;;;4937235;29;20032;-79
2023/06/02 12:38:34;;;;;;;9.95;6.57;;;25.80;38.20;;;;;;4929619;29;20390;-79
2023/06/02 12:41:00;;;;;;;9.95;7.13;;;25.90;37.70;;;;;;4927420;29;20554;-79
2023/06/02 12:43:26;;;;;;;10.18;7.55;;;26.00;38.60;;;;;;4935266;29;20110;-79
2023/06/02 12:45:52;;;;;;;9.88;7.50;;;26.00;37.80;;;;;;4928893;29;20498;-79
2023/06/02 12:48:18;;;;;;;9.10;6.72;;;26.00;39.30;;;;;;4927439;29;20020;-79
2023/06/02 12:50:44;;;;;;;9.20;6.43;;;26.20;38.60;;;;;;4929368;29;20059;-79
2023/06/02 12:53:11;;;;;;;8.77;6.60;;;26.20;38.90;;;;;;4929212;29;20063;-78
2023/06/02 12:55:37;;;;;;;10.95;6.53;;;26.10;38.10;;;;;;4937545;29;20030;-79
2023/06/02 12:58:03;;;;;;;8.07;5.78;;;26.00;38.50;;;;;;4921148;29;20131;-80
2023/06/02 13:00:30;;;;;;;8.32;5.63;;;26.20;37.60;;;;;;4928372;29;20047;-79
2023/06/02 13:02:56;;;;;;;8.77;5.70;;;26.00;37.70;;;;;;4932548;29;20084;-79
2023/06/02 13:05:21;;;;;;;11.35;5.28;;;26.10;37.80;;;;;;4911957;29;20446;-79
2023/06/02 13:07:47;;;;;;;7.60;4.97;;;26.10;37.20;;;;;;4928410;29;20411;-79
2023/06/02 13:10:13;;;;;;;8.90;4.95;;;25.80;37.10;;;;;;4927489;29;20031;-79
2023/06/02 13:12:39;;;;;;;7.60;4.68;;;25.80;37.70;;;;;;4929365;29;20099;-80
2023/06/02 13:15:06;;;;;;;7.97;4.80;;;25.90;37.00;;;;;;4927399;29;20514;-79
2023/06/02 13:17:33;;;;;;;5.88;4.25;;;25.90;37.80;;;;;;4910907;29;20081;-80
2023/06/02 13:19:59;;;;;;;6.75;4.60;;;25.90;36.40;;;;;;4912714;29;20478;-79
2023/06/02 13:22:28;;;;;;;8.57;4.70;;;25.90;36.80;;;;;;4919170;29;20032;-79
2023/06/02 13:24:54;;;;;;;7.47;4.40;;;26.00;36.90;;;;;;4929230;29;20068;-80
2023/06/02 13:27:20;;;;;;;7.07;4.20;;;26.00;37.10;;;;;;4929614;29;20024;-79
2023/06/02 13:29:45;;;;;;;8.65;4.85;;;26.10;36.50;;;;;;4938311;29;20082;-80
2023/06/02 13:32:11;;;;;;;6.53;4.20;;;26.10;37.00;;;;;;4943359;29;20053;-79
2023/06/02 13:34:37;;;;;;;6.68;4.57;;;25.90;36.50;;;;;;4923702;29;20757;-80
2023/06/02 13:37:03;;;;;;;6.60;4.40;;;26.00;36.60;;;;;;4917133;29;20039;-80
2023/06/02 13:39:28;;;;;;;8.60;4.85;;;26.00;36.70;;;;;;4937237;29;20034;-79
2023/06/02 13:41:54;;;;;;;6.85;4.30;;;26.00;36.40;;;;;;4934770;29;20083;-79
2023/06/02 13:44:20;;;;;;;8.95;5.10;;;26.00;36.30;;;;;;4931882;29;20032;-79
2023/06/02 13:46:47;;;;;;;7.15;4.80;;;26.10;36.30;;;;;;4940985;29;20035;-80
2023/06/02 13:49:16;;;;;;;7.45;4.55;;;26.10;35.50;;;;;;4932915;29;20040;-79
2023/06/02 13:51:43;;;;;;;7.90;4.57;;;26.00;36.10;;;;;;4927535;29;20574;-79
2023/06/02 13:54:09;;;;;;;10.32;4.72;;;26.00;36.10;;;;;;4927591;29;20027;-79
2023/06/02 13:56:35;;;;;;;7.53;4.53;;;26.10;36.50;;;;;;4929358;29;20035;-80
2023/06/02 13:59:01;;;;;;;7.47;5.18;;;26.10;36.10;;;;;;4927356;29;20079;-79
2023/06/02 14:01:26;;;;;;;5.45;4.13;;;26.10;36.00;;;;;;4927580;29;20028;-79
2023/06/02 14:03:52;;;;;;;7.32;3.80;;;26.20;36.00;;;;;;4932661;29;20115;-80
2023/06/02 14:06:18;;;;;;;6.85;4.18;;;26.00;35.90;;;;;;4927050;29;20092;-79
2023/06/02 14:08:43;;;;;;;7.90;4.03;;;26.00;36.60;;;;;;4926791;29;20027;-80
2023/06/02 14:11:10;;;;;;;6.78;4.15;;;26.10;35.80;;;;;;4927711;29;20111;-79
2023/06/02 14:13:35;;;;;;;5.60;3.83;;;26.10;36.00;;;;;;4926532;29;20024;-80
2023/06/02 14:16:01;;;;;;;5.28;3.72;;;26.20;36.50;;;;;;4911278;29;20127;-80
2023/06/02 14:18:27;;;;;;;7.72;3.92;;;26.20;36.10;;;;;;4929270;29;20039;-79
2023/06/02 14:20:52;;;;;;;6.68;3.50;;;26.20;36.30;;;;;;4935321;29;20052;-79
2023/06/02 14:23:18;;;;;;;7.63;3.15;;;26.30;37.20;;;;;;4931197;29;20035;-79
2023/06/02 14:25:44;;;;;;;5.63;3.45;;;26.20;36.00;;;;;;4938960;29;20043;-79
2023/06/02 14:28:09;;;;;;;4.63;2.78;;;26.20;36.80;;;;;;4935481;29;20455;-79
2023/06/02 14:30:35;;;;;;;6.57;3.15;;;26.30;36.00;;;;;;4935474;29;20066;-79
2023/06/02 14:33:01;;;;;;;5.97;3.65;;;26.30;34.80;;;;;;4952876;28;20032;-79
2023/06/02 14:35:26;;;;;;;5.97;3.30;;;26.30;35.10;;;;;;4939877;28;20832;-79
2023/06/02 14:37:52;;;;;;;6.15;3.05;;;26.10;36.10;;;;;;4952425;28;20429;-79
2023/06/02 14:40:18;;;;;;;4.57;3.00;;;26.20;35.70;;;;;;4951938;28;20027;-79
2023/06/02 14:42:44;;;;;;;5.38;3.15;;;26.20;36.80;;;;;;4956382;28;20031;-79
2023/06/02 14:45:10;;;;;;;7.00;4.22;;;26.20;37.40;;;;;;4953644;28;20031;-79
2023/06/02 14:47:35;;;;;;;4.30;2.80;;;26.30;36.30;;;;;;4949751;28;20035;-79
2023/06/02 14:50:01;;;;;;;6.30;3.10;;;26.20;35.80;;;;;;4951843;28;20100;-79
2023/06/02 14:52:27;;;;;;;5.35;2.90;;;26.30;35.50;;;;;;4949809;28;20031;-79
2023/06/02 14:57:18;;;;;;;6.10;3.13;;;26.30;37.00;;;;;;4938715;29;20031;-78
2023/06/02 14:59:44;;;;;;;5.35;2.55;;;26.30;37.40;;;;;;4957215;28;20118;-79
2023/06/02 15:02:09;;;;;;;6.15;3.20;;;26.30;36.60;;;;;;4939062;29;20027;-79
2023/06/02 15:04:35;;;;;;;6.05;2.85;;;26.30;36.00;;;;;;4951628;28;20100;-79
2023/06/02 15:07:01;;;;;;;6.82;3.55;;;26.30;35.30;;;;;;4940125;29;20114;-79
2023/06/02 15:09:26;;;;;;;3.88;2.80;;;26.20;35.40;;;;;;4947330;28;20028;-79
2023/06/02 15:11:52;;;;;;;4.82;3.03;;;26.20;36.60;;;;;;4954542;28;20011;-79
2023/06/02 15:14:19;;;;;;;4.65;2.92;;;26.10;35.60;;;;;;4950357;28;20100;-79
2023/06/02 15:16:45;;;;;;;4.90;2.90;;;26.20;35.90;;;;;;4955274;28;20035;-79
2023/06/02 15:19:11;;;;;;;4.45;2.90;;;26.20;36.90;;;;;;4947849;28;20028;-79
2023/06/02 15:21:38;;;;;;;3.88;2.70;;;26.30;36.80;;;;;;4941463;29;20022;-79
2023/06/02 15:24:04;;;;;;;5.25;2.88;;;26.30;36.70;;;;;;4938204;28;20035;-79
2023/06/02 15:26:30;;;;;;;5.85;2.92;;;26.30;36.10;;;;;;4954190;29;20023;-79
2023/06/02 15:28:55;;;;;;;4.13;2.60;;;26.30;35.70;;;;;;4942116;28;20071;-79
2023/06/02 15:31:21;;;;;;;4.32;3.03;;;26.00;34.80;;;;;;4962099;28;20051;-79
2023/06/02 15:33:46;;;;;;;5.60;3.30;;;25.90;35.30;;;;;;4957770;28;20031;-75
2023/06/02 15:36:13;;;;;;;5.65;3.15;;;25.80;35.70;;;;;;4949067;28;20098;-75
2023/06/02 15:38:39;;;;;;;9.07;3.72;;;25.80;36.40;;;;;;4953224;29;20036;-75
2023/06/02 15:41:06;;;;;;;7.35;3.40;;;26.00;36.50;;;;;;4952276;29;20047;-75
2023/06/02 15:43:31;;;;;;;6.15;3.10;;;26.00;37.40;;;;;;4948318;28;20702;-77
2023/06/02 15:46:03;;;;;;;5.43;3.50;;;26.10;36.50;;;;;;4950905;29;20031;-77
2023/06/02 15:48:29;;;;;;;4.72;3.22;;;26.00;36.90;;;;;;4931790;29;20063;-82
2023/06/02 15:50:55;;;;;;;6.40;3.70;;;26.00;37.70;;;;;;4938790;28;20027;-79
2023/06/02 15:53:21;;;;;;;7.00;3.50;;;26.10;37.10;;;;;;4948925;29;20089;-79
2023/06/02 15:55:47;;;;;;;6.13;3.80;;;26.00;37.10;;;;;;4950481;28;20027;-79
2023/06/02 15:58:12;;;;;;;5.88;3.53;;;26.00;37.40;;;;;;4952556;28;20039;-79
2023/06/02 16:00:38;;;;;;;5.22;3.63;;;26.00;37.30;;;;;;4946819;28;20019;-84
2023/06/02 16:03:03;;;;;;;4.93;3.13;;;25.90;36.50;;;;;;4939568;29;20031;-79
2023/06/02 16:05:29;;;;;;;5.65;3.25;;;25.80;35.80;;;;;;4948555;28;20019;-80
2023/06/02 16:07:55;;;;;;;8.77;3.60;;;25.70;35.80;;;;;;4949554;29;20125;-81
2023/06/02 16:10:20;;;;;;;6.57;3.53;;;25.70;36.50;;;;;;4955643;29;20019;-81
2023/06/02 16:12:51;;;;;;;5.80;3.85;;;25.70;37.10;;;;;;4958099;28;20043;-81
2023/06/02 16:15:16;;;;;;;11.27;3.83;;;25.70;36.90;;;;;;4937414;28;20062;-86
2023/06/02 16:17:42;;;;;;;8.05;3.83;;;25.70;37.40;;;;;;4944922;28;20062;-84
2023/06/02 16:20:08;;;;;;;9.23;4.20;;;25.70;37.60;;;;;;4956390;28;20042;-80
2023/06/02 16:22:35;;;;;;;6.63;4.20;;;25.70;38.10;;;;;;4954138;28;20532;-79
2023/06/02 16:25:03;;;;;;;8.68;4.80;;;25.60;38.10;;;;;;4952655;29;20016;-81
2023/06/02 16:27:29;;;;;;;8.48;4.10;;;25.60;38.20;;;;;;4955185;28;20114;-78
2023/06/02 16:29:55;;;;;;;6.35;3.63;;;25.50;38.10;;;;;;4943618;28;20514;-81
2023/06/02 16:32:21;;;;;;;10.15;4.03;;;25.50;38.00;;;;;;4932351;28;20128;-81
2023/06/02 16:34:47;;;;;;;6.05;4.28;;;25.30;37.60;;;;;;4940975;29;20054;-80
2023/06/02 16:37:15;;;;;;;7.95;4.22;;;25.30;38.30;;;;;;4938050;29;20031;-80
2023/06/02 16:39:40;;;;;;;7.97;4.30;;;25.30;38.20;;;;;;4921518;29;20530;-81
2023/06/02 16:42:06;;;;;;;7.97;4.05;;;25.30;38.00;;;;;;4934077;29;20071;-81
2023/06/02 16:44:32;;;;;;;8.77;4.15;;;25.20;38.20;;;;;;4940065;29;20066;-81
2023/06/02 16:46:57;;;;;;;6.90;4.03;;;25.10;39.00;;;;;;4939293;29;20095;-81
2023/06/02 16:49:23;;;;;;;8.82;4.45;;;25.00;39.40;;;;;;4939517;29;20028;-80
2023/06/02 16:51:50;;;;;;;9.18;4.30;;;25.10;40.40;;;;;;4933919;29;20111;-81
2023/06/02 16:54:15;;;;;;;7.53;4.05;;;25.10;40.30;;;;;;4924733;29;20035;-83
2023/06/02 16:56:41;;;;;;;10.40;4.28;;;25.10;40.50;;;;;;4920870;29;20063;-75
2023/06/02 16:59:07;;;;;;;8.43;4.32;;;25.10;40.20;;;;;;4931875;29;20089;-78
2023/06/02 17:01:32;;;;;;;8.07;4.07;;;25.00;40.20;;;;;;4919607;29;20027;-77
2023/06/02 17:03:58;;;;;;;7.40;4.28;;;24.90;40.20;;;;;;4928495;29;20031;-76
2023/06/02 17:06:24;;;;;;;10.02;4.07;;;24.90;40.30;;;;;;4926100;29;20115;-80
2023/06/02 17:08:49;;;;;;;7.43;3.80;;;24.90;40.50;;;;;;4928129;29;20060;-79
2023/06/02 17:11:15;;;;;;;8.57;4.28;;;24.90;40.70;;;;;;4930011;29;20039;-80
2023/06/02 17:13:40;;;;;;;8.02;4.22;;;24.80;41.20;;;;;;4929887;29;20051;-79